Time;durP1;ratioP1;P1;durP2;ratioP2;P2;SDS_P1;SDS_P2;PMS_P1;PMS_P2;Temp;Humidity;BMP_temperature;BMP_pressure;BME280_temperature;BME280_humidity;BME280_pressure;Samples;Min_cycle;Max_cycle;Signal;HPM_P1;HPM_P2
2022/11/14 00:01:12;;;;;;;61.23;29.07;;;8.30;99.90;;;;;;10459754;28;20226;-87
2022/11/14 00:06:33;;;;;;;72.17;33.77;;;8.80;99.90;;;;;;10433399;28;20235;-87
2022/11/14 00:11:55;;;;;;;69.63;32.90;;;;;;;;;;10406893;28;20654;-87
2022/11/14 00:17:16;;;;;;;74.63;35.47;;;9.70;99.90;;;;;;10457721;28;20262;-87
2022/11/14 00:22:37;;;;;;;74.47;34.30;;;8.80;99.90;;;;;;10458800;28;20684;-86
2022/11/14 00:27:59;;;;;;;76.03;36.03;;;8.00;99.90;;;;;;10432623;28;20230;-87
2022/11/14 00:33:20;;;;;;;60.03;29.30;;;8.30;99.90;;;;;;10442789;28;20603;-86
2022/11/14 00:38:41;;;;;;;74.03;34.90;;;8.40;99.90;;;;;;10439902;28;20254;-87
2022/11/14 00:44:02;;;;;;;58.47;28.70;;;8.40;99.90;;;;;;10432321;28;20231;-86
2022/11/14 00:49:23;;;;;;;56.83;25.80;;;10.80;99.90;;;;;;10446757;28;20234;-87
2022/11/14 00:54:44;;;;;;;62.40;30.90;;;10.70;99.90;;;;;;10436252;28;20639;-87
2022/11/14 01:00:06;;;;;;;73.20;34.23;;;12.60;99.90;;;;;;10419085;28;20263;-86
2022/11/14 01:05:27;;;;;;;74.47;34.47;;;11.60;99.90;;;;;;10417885;28;20226;-87
2022/11/14 01:10:49;;;;;;;76.00;35.93;;;10.60;99.90;;;;;;10450586;28;20242;-87
2022/11/14 01:16:11;;;;;;;71.93;35.37;;;9.40;99.90;;;;;;10454607;28;20234;-87
2022/11/14 01:21:32;;;;;;;72.40;34.07;;;9.60;99.90;;;;;;10450407;28;20243;-87
2022/11/14 01:26:56;;;;;;;69.27;34.57;;;9.20;99.90;;;;;;10454838;28;20211;-87
2022/11/14 01:32:17;;;;;;;67.60;33.17;;;9.10;99.90;;;;;;10449174;28;20679;-86
2022/11/14 01:37:38;;;;;;;79.03;36.57;;;10.10;99.90;;;;;;10464846;28;20250;-87
2022/11/14 01:43:17;;;;;;;74.13;35.07;;;9.60;99.90;;;;;;10459783;28;20667;-87
2022/11/14 01:48:44;;;;;;;70.37;33.83;;;9.00;99.90;;;;;;10455910;28;20247;-86
2022/11/14 01:54:10;;;;;;;64.67;31.13;;;10.20;99.90;;;;;;10458842;28;20231;-87
2022/11/14 01:59:35;;;;;;;62.23;29.63;;;9.30;99.90;;;;;;10454937;28;20257;-87
2022/11/14 02:05:06;;;;;;;76.23;36.73;;;9.50;99.90;;;;;;10440676;28;20683;-86
2022/11/14 02:10:27;;;;;;;75.33;35.97;;;9.00;99.90;;;;;;10449851;28;20231;-86
2022/11/14 02:15:49;;;;;;;71.83;33.40;;;9.70;99.90;;;;;;10465689;28;20673;-87
2022/11/14 02:21:10;;;;;;;65.97;34.43;;;12.00;99.90;;;;;;10464501;28;20682;-87
2022/11/14 02:26:31;;;;;;;62.57;31.83;;;10.60;99.90;;;;;;10455641;28;20238;-86
2022/11/14 02:31:56;;;;;;;71.30;35.67;;;10.00;99.90;;;;;;10456523;28;20640;-87
2022/11/14 02:37:17;;;;;;;76.77;36.03;;;10.30;99.90;;;;;;10459721;28;20250;-87
2022/11/14 02:42:38;;;;;;;63.77;30.80;;;8.70;99.90;;;;;;10456618;28;20211;-87
2022/11/14 02:47:59;;;;;;;52.87;28.30;;;10.00;99.90;;;;;;10458163;28;20238;-87
2022/11/14 02:53:20;;;;;;;73.97;35.50;;;10.40;99.90;;;;;;10464993;28;20246;-87
2022/11/14 02:58:41;;;;;;;60.53;31.57;;;10.50;99.90;;;;;;10454202;28;20264;-87
2022/11/14 03:04:02;;;;;;;67.77;32.37;;;9.70;99.90;;;;;;10454659;28;20238;-86
2022/11/14 03:09:23;;;;;;;70.87;33.20;;;9.60;99.90;;;;;;10456788;28;20597;-86
2022/11/14 03:14:44;;;;;;;75.80;37.20;;;9.50;99.90;;;;;;10438812;28;20238;-87
2022/11/14 03:20:07;;;;;;;81.73;39.27;;;8.30;99.90;;;;;;10455695;28;20266;-87
2022/11/14 03:25:27;;;;;;;65.43;31.70;;;9.00;99.90;;;;;;10463997;28;20210;-86
2022/11/14 03:30:48;;;;;;;67.90;35.20;;;10.50;99.90;;;;;;10440236;28;20207;-86
2022/11/14 03:36:10;;;;;;;68.30;36.17;;;10.00;99.90;;;;;;10452114;28;20240;-86
2022/11/14 03:41:31;;;;;;;60.13;30.63;;;8.60;99.90;;;;;;10459512;28;20718;-86
2022/11/14 03:46:52;;;;;;;69.77;32.13;;;9.40;99.90;;;;;;10464401;28;20187;-86
2022/11/14 03:52:12;;;;;;;68.53;33.67;;;8.50;99.90;;;;;;10452617;28;20250;-86
2022/11/14 03:57:33;;;;;;;76.40;36.17;;;9.20;99.90;;;;;;10435970;28;20262;-86
2022/11/14 04:02:55;;;;;;;68.67;34.17;;;8.20;99.90;;;;;;10451210;28;20218;-87
2022/11/14 04:08:16;;;;;;;66.03;32.33;;;10.30;99.90;;;;;;10462595;28;20214;-87
2022/11/14 04:13:37;;;;;;;79.20;35.97;;;10.80;99.90;;;;;;10452623;28;20642;-87
2022/11/14 04:18:58;;;;;;;82.50;38.97;;;8.60;99.90;;;;;;10452662;28;20250;-87
2022/11/14 04:24:19;;;;;;;83.83;38.20;;;8.30;99.90;;;;;;10456802;28;20230;-87
2022/11/14 04:29:40;;;;;;;69.73;32.83;;;8.70;99.90;;;;;;10452652;28;20210;-86
2022/11/14 04:35:01;;;;;;;79.33;35.93;;;8.10;99.90;;;;;;10421765;28;20205;-87
2022/11/14 04:40:22;;;;;;;71.40;33.27;;;8.80;99.90;;;;;;10425662;28;20297;-87
2022/11/14 04:45:43;;;;;;;77.03;34.60;;;8.90;99.90;;;;;;10438608;28;20230;-87
2022/11/14 04:51:04;;;;;;;70.47;33.73;;;8.00;99.90;;;;;;10451309;28;20202;-87
2022/11/14 04:56:25;;;;;;;83.60;35.77;;;8.20;99.90;;;;;;10453394;28;20238;-86
2022/11/14 05:01:46;;;;;;;65.57;32.13;;;7.90;99.90;;;;;;10462613;28;20674;-87
2022/11/14 05:07:07;;;;;;;67.23;30.20;;;9.70;99.90;;;;;;10461871;28;20202;-87
2022/11/14 05:12:28;;;;;;;65.97;31.50;;;8.30;99.90;;;;;;10463958;28;20202;-87
2022/11/14 05:17:50;;;;;;;65.13;30.23;;;7.40;99.90;;;;;;10459994;28;20254;-87
2022/11/14 05:23:22;;;;;;;65.37;30.93;;;8.80;99.90;;;;;;10469089;28;20207;-87
2022/11/14 05:28:43;;;;;;;78.97;32.77;;;7.70;99.90;;;;;;10460335;28;20206;-87
2022/11/14 05:34:04;;;;;;;79.37;34.93;;;7.30;99.90;;;;;;10470659;28;20203;-87
2022/11/14 05:39:25;;;;;;;65.47;31.17;;;7.40;99.90;;;;;;10469695;28;20230;-87
2022/11/14 05:44:46;;;;;;;77.77;31.70;;;9.20;99.90;;;;;;10461865;28;20222;-87
2022/11/14 05:50:07;;;;;;;73.20;32.23;;;7.40;99.90;;;;;;10464496;28;20211;-87
2022/11/14 05:55:29;;;;;;;70.80;33.10;;;7.10;99.90;;;;;;10460543;28;20223;-87
2022/11/14 06:00:50;;;;;;;73.20;33.47;;;8.90;99.90;;;;;;10465838;28;20226;-87
2022/11/14 06:06:18;;;;;;;72.90;33.87;;;10.20;99.90;;;;;;10461128;28;20207;-87
2022/11/14 06:11:39;;;;;;;70.47;33.00;;;8.60;99.90;;;;;;10470907;28;20203;-87
2022/11/14 06:17:00;;;;;;;70.83;35.13;;;9.20;99.90;;;;;;10478711;28;20595;-87
2022/11/14 06:22:22;;;;;;;84.50;35.83;;;7.80;99.90;;;;;;10459999;28;20214;-87
2022/11/14 06:27:43;;;;;;;74.93;34.03;;;6.90;99.90;;;;;;10465748;28;20207;-88
2022/11/14 06:33:04;;;;;;;61.10;33.57;;;7.20;99.90;;;;;;10470399;28;20544;-87
2022/11/14 06:38:25;;;;;;;65.67;32.07;;;8.50;99.90;;;;;;10466859;28;20214;-87
2022/11/14 06:43:49;;;;;;;72.37;32.80;;;10.30;99.90;;;;;;10434796;28;20225;-87
2022/11/14 06:49:10;;;;;;;68.20;32.33;;;7.70;99.90;;;;;;10471799;28;20207;-94
2022/11/14 06:54:32;;;;;;;64.87;31.43;;;9.20;99.90;;;;;;10456895;28;20206;-94
2022/11/14 06:59:53;;;;;;;71.63;33.20;;;7.70;99.90;;;;;;10504044;28;20214;-94
2022/11/14 07:05:14;;;;;;;59.43;30.67;;;7.60;99.90;;;;;;10503971;28;20183;-90
2022/11/14 07:10:35;;;;;;;65.37;32.33;;;8.70;99.90;;;;;;10505591;28;20182;-89
2022/11/14 07:15:56;;;;;;;62.73;29.27;;;11.20;99.90;;;;;;10509061;28;20183;-88
2022/11/14 07:21:18;;;;;;;58.07;29.07;;;11.40;99.90;;;;;;10508546;28;20219;-88
2022/11/14 07:26:39;;;;;;;53.00;26.30;;;10.70;99.90;;;;;;10510232;28;20203;-88
2022/11/14 07:32:00;;;;;;;62.20;27.40;;;12.00;99.90;;;;;;10513511;28;20187;-88
2022/11/14 07:37:21;;;;;;;63.43;30.30;;;12.60;99.90;;;;;;10510150;28;20487;-88
2022/11/14 07:42:42;;;;;;;54.73;27.93;;;9.90;99.90;;;;;;10512335;28;20202;-89
2022/11/14 07:48:04;;;;;;;50.07;25.70;;;11.50;99.90;;;;;;10491124;28;20196;-88
2022/11/14 07:53:25;;;;;;;58.23;28.53;;;11.90;99.90;;;;;;10511126;28;20195;-88
2022/11/14 07:58:46;;;;;;;59.70;29.27;;;9.00;99.90;;;;;;10506718;28;20226;-88
2022/11/14 08:04:07;;;;;;;63.27;28.87;;;9.90;99.90;;;;;;10500961;28;20177;-88
2022/11/14 08:09:28;;;;;;;50.37;28.33;;;11.10;99.90;;;;;;10505820;28;20199;-87
2022/11/14 08:14:52;;;;;;;62.00;30.13;;;11.70;99.90;;;;;;10494166;28;20196;-89
2022/11/14 08:20:18;;;;;;;54.03;27.83;;;9.80;99.90;;;;;;10491239;28;20198;-88
2022/11/14 08:25:40;;;;;;;51.23;30.97;;;10.50;99.90;;;;;;10500700;28;20211;-88
2022/11/14 08:31:03;;;;;;;48.30;27.27;;;10.80;99.90;;;;;;10509778;28;20189;-88
2022/11/14 08:36:24;;;;;;;54.90;29.83;;;10.40;99.90;;;;;;10497499;28;20183;-88
2022/11/14 08:41:45;;;;;;;52.67;29.77;;;8.40;99.90;;;;;;10497883;28;20210;-87
2022/11/14 08:47:06;;;;;;;61.03;30.47;;;9.20;99.90;;;;;;10513751;28;20182;-88
2022/11/14 08:52:27;;;;;;;59.60;30.23;;;8.60;99.90;;;;;;10522707;28;20195;-88
2022/11/14 08:57:52;;;;;;;55.97;31.33;;;9.10;99.90;;;;;;10517492;28;20195;-88
2022/11/14 09:03:14;;;;;;;48.70;27.80;;;10.80;99.90;;;;;;10490404;28;20192;-88
2022/11/14 09:08:36;;;;;;;49.73;27.07;;;10.70;99.90;;;;;;10523935;28;20191;-88
2022/11/14 09:13:57;;;;;;;57.60;29.60;;;9.20;99.90;;;;;;10515160;28;20179;-88
2022/11/14 09:19:18;;;;;;;60.93;32.33;;;8.10;99.90;;;;;;10515515;28;20179;-88
2022/11/14 09:30:12;;;;;;;59.87;31.20;;;10.20;99.90;;;;;;10596017;23;10001598;-88
2022/11/14 09:35:33;;;;;;;50.30;28.17;;;9.30;99.90;;;;;;10260532;28;20296;-88
2022/11/14 09:41:23;;;;;;;52.10;28.37;;;11.10;99.90;;;;;;10254024;28;20249;-88
2022/11/14 09:47:09;;;;;;;48.67;28.10;;;11.50;99.90;;;;;;10251778;28;20695;-88
2022/11/14 09:52:37;;;;;;;42.60;25.53;;;9.80;99.90;;;;;;10257510;28;20695;-88
2022/11/14 09:57:59;;;;;;;45.63;27.60;;;11.50;99.90;;;;;;10257719;28;20242;-88
2022/11/14 10:03:20;;;;;;;47.57;27.90;;;11.60;99.90;;;;;;10257509;28;20464;-88
2022/11/14 10:08:51;;;;;;;44.57;25.63;;;13.70;99.90;;;;;;10248333;28;20236;-88
2022/11/14 10:14:40;;;;;;;47.73;29.97;;;11.20;99.90;;;;;;10249959;28;20242;-88
2022/11/14 10:20:29;;;;;;;47.87;28.20;;;10.80;99.90;;;;;;10242848;29;20633;-88
2022/11/14 10:25:59;;;;;;;47.47;28.43;;;11.40;99.90;;;;;;10250034;28;20231;-88
2022/11/14 10:31:58;;;;;;;46.83;27.87;;;13.00;99.90;;;;;;10254159;28;20259;-88
2022/11/14 10:37:43;;;;;;;49.37;27.97;;;11.50;99.90;;;;;;10235115;29;20608;-88
2022/11/14 10:43:36;;;;;;;45.80;26.87;;;12.10;99.90;;;;;;10265349;28;20252;-88
2022/11/14 10:48:58;;;;;;;47.33;26.73;;;13.20;99.90;;;;;;10269976;28;20233;-87
2022/11/14 10:54:29;;;;;;;46.23;25.53;;;11.90;99.90;;;;;;10255980;28;20238;-89
2022/11/14 10:59:52;;;;;;;55.10;28.27;;;11.80;99.90;;;;;;10248611;29;20265;-89
2022/11/14 11:05:16;;;;;;;48.60;27.77;;;10.40;99.90;;;;;;10242774;28;20234;-89
2022/11/14 11:16:24;;;;;;;50.27;28.87;;;10.30;99.90;;;;;;10238928;28;20560;-89
2022/11/14 11:21:51;;;;;;;52.90;29.90;;;10.80;99.90;;;;;;10248736;28;20254;-89
2022/11/14 11:27:19;;;;;;;47.03;27.37;;;11.50;99.90;;;;;;10256040;28;20235;-89
2022/11/14 11:32:40;;;;;;;49.73;28.80;;;11.60;99.90;;;;;;10246828;28;20253;-89
2022/11/14 11:38:02;;;;;;;46.60;25.17;;;11.90;99.90;;;;;;10257371;28;20233;-89
2022/11/14 11:43:30;;;;;;;46.23;24.47;;;11.30;99.90;;;;;;10257930;28;20266;-89
2022/11/14 11:49:27;;;;;;;41.93;25.13;;;9.80;99.90;;;;;;10245369;28;20242;-89
2022/11/14 11:55:09;;;;;;;45.53;26.33;;;11.70;99.90;;;;;;10255155;28;20233;-89
2022/11/14 12:00:31;;;;;;;49.73;26.80;;;12.60;99.90;;;;;;10251989;28;20246;-89
2022/11/14 12:06:12;;;;;;;45.90;27.03;;;11.10;99.90;;;;;;10245288;28;20233;-89
2022/11/14 12:11:36;;;;;;;44.13;25.83;;;13.30;99.90;;;;;;10246050;29;20973;-89
2022/11/14 12:17:09;;;;;;;45.80;27.67;;;12.30;99.90;;;;;;10245537;28;20626;-88
2022/11/14 12:23:07;;;;;;;39.00;24.30;;;11.80;99.90;;;;;;10241381;29;20716;-89
2022/11/14 12:29:06;;;;;;;42.77;25.93;;;11.70;99.90;;;;;;10267156;28;20251;-89
2022/11/14 12:34:40;;;;;;;45.97;27.33;;;12.50;99.90;;;;;;10258388;28;20677;-89
2022/11/14 12:40:06;;;;;;;42.07;25.73;;;11.90;99.90;;;;;;10255412;28;20620;-89
2022/11/14 12:45:39;;;;;;;42.00;24.40;;;12.40;99.90;;;;;;10245676;28;20238;-89
2022/11/14 12:51:02;;;;;;;37.87;23.10;;;11.10;99.90;;;;;;10221521;29;20238;-89
2022/11/14 12:56:30;;;;;;;45.07;25.77;;;10.20;99.90;;;;;;10240372;28;20230;-90
2022/11/14 13:01:51;;;;;;;46.90;28.30;;;10.20;99.90;;;;;;10215191;29;20249;-89
2022/11/14 13:07:27;;;;;;;47.87;28.90;;;12.10;99.90;;;;;;10257233;28;20623;-89
2022/11/14 13:25:02;;;;;;;45.67;26.87;;;9.20;99.90;;;;;;10245955;29;20238;-89
2022/11/14 13:31:09;;;;;;;60.47;29.50;;;9.10;99.90;;;;;;10248764;28;20269;-88
2022/11/14 13:36:46;;;;;;;52.77;27.17;;;9.50;99.90;;;;;;10250459;29;20634;-88
2022/11/14 13:43:02;;;;;;;53.60;28.13;;;10.40;99.90;;;;;;10263675;28;20261;-88
2022/11/14 13:49:20;;;;;;;45.63;26.77;;;9.90;99.90;;;;;;10249886;28;20230;-89
2022/11/14 13:55:00;;;;;;;48.43;27.87;;;10.30;99.90;;;;;;10094664;29;20245;-94
2022/11/14 14:00:21;;;;;;;52.57;29.33;;;11.40;99.90;;;;;;10056971;29;20246;-94
2022/11/14 14:06:29;;;;;;;51.50;28.20;;;9.70;99.90;;;;;;10133245;29;20239;-94
2022/11/14 14:12:01;;;;;;;49.07;26.87;;;9.70;99.90;;;;;;9971301;29;20219;-94
2022/11/14 14:17:44;;;;;;;49.20;27.47;;;9.40;99.90;;;;;;10019679;29;20215;-94
2022/11/14 14:23:34;;;;;;;53.37;30.40;;;8.70;99.90;;;;;;10116979;29;20229;-94
2022/11/14 14:29:16;;;;;;;49.67;27.17;;;8.30;99.90;;;;;;10232993;28;20226;-94
2022/11/14 14:34:40;;;;;;;259.00;48.17;;;9.00;99.90;;;;;;10224816;28;20207;-90
2022/11/14 14:40:07;;;;;;;54.03;28.47;;;11.30;99.90;;;;;;10185470;29;20255;-91
2022/11/14 14:45:30;;;;;;;63.57;32.87;;;9.10;99.90;;;;;;10243358;29;20687;-90
2022/11/14 14:50:54;;;;;;;53.10;29.40;;;8.10;99.90;;;;;;10252935;28;20622;-90
2022/11/14 14:56:21;;;;;;;70.43;33.40;;;8.10;99.90;;;;;;10248074;28;20230;-90
2022/11/14 15:01:42;;;;;;;59.83;30.20;;;8.40;99.90;;;;;;10253781;28;20258;-90
2022/11/14 15:07:03;;;;;;;57.17;32.17;;;8.40;99.90;;;;;;10251028;28;20202;-91
2022/11/14 15:12:27;;;;;;;54.90;30.77;;;8.10;99.90;;;;;;10251128;28;20246;-91
2022/11/14 15:17:49;;;;;;;62.23;30.20;;;7.20;99.90;;;;;;10235977;29;20245;-92
2022/11/14 15:23:14;;;;;;;70.67;34.73;;;6.80;99.90;;;;;;10220100;29;20257;-90
2022/11/14 15:28:35;;;;;;;76.90;37.27;;;;;;;;;;10249168;28;20230;-90
2022/11/14 15:34:31;;;;;;;64.17;35.80;;;6.60;99.90;;;;;;10249720;29;20214;-90
2022/11/14 15:39:51;;;;;;;67.73;35.73;;;6.40;99.90;;;;;;10247501;29;20242;-91
2022/11/14 15:45:26;;;;;;;66.03;33.90;;;6.20;99.90;;;;;;10256039;28;20241;-91
2022/11/14 15:50:49;;;;;;;67.00;35.60;;;6.10;99.90;;;;;;10252148;28;20202;-91
2022/11/14 15:56:14;;;;;;;80.90;40.80;;;6.10;99.90;;;;;;10246371;28;20620;-92
2022/11/14 16:01:35;;;;;;;93.97;46.90;;;6.00;99.90;;;;;;10241596;29;20253;-91
2022/11/14 16:06:57;;;;;;;67.57;34.27;;;6.10;99.90;;;;;;10258974;28;20230;-91
2022/11/14 16:12:18;;;;;;;73.63;37.83;;;6.00;99.90;;;;;;10240847;28;20241;-92
2022/11/14 16:17:42;;;;;;;82.57;40.23;;;6.40;99.90;;;;;;10249009;28;20246;-91
2022/11/14 16:23:04;;;;;;;85.57;40.43;;;6.30;99.90;;;;;;10236223;29;20258;-91
2022/11/14 16:28:25;;;;;;;86.37;41.83;;;6.00;99.90;;;;;;10247739;28;20718;-91
2022/11/14 16:33:46;;;;;;;76.13;38.70;;;5.60;99.90;;;;;;10251810;28;20257;-91
2022/11/14 16:39:10;;;;;;;78.43;37.30;;;5.60;99.90;;;;;;10239993;29;20237;-91
2022/11/14 16:44:31;;;;;;;72.20;38.30;;;5.60;99.90;;;;;;10243683;29;20249;-90
2022/11/14 16:50:02;;;;;;;66.93;35.57;;;5.80;99.90;;;;;;10244729;29;20229;-91
2022/11/14 16:55:23;;;;;;;74.63;36.23;;;5.50;99.90;;;;;;10244712;29;20242;-91
2022/11/14 17:00:44;;;;;;;68.07;33.50;;;5.30;99.90;;;;;;10250467;29;20262;-92
2022/11/14 17:06:07;;;;;;;65.57;31.67;;;5.20;99.90;;;;;;10240887;28;20233;-91
2022/11/14 17:11:28;;;;;;;63.23;31.67;;;5.30;99.90;;;;;;10253433;28;20233;-92
2022/11/14 17:16:49;;;;;;;82.43;43.80;;;5.60;99.90;;;;;;10252521;28;20230;-91
2022/11/14 17:22:14;;;;;;;74.23;33.77;;;5.40;99.90;;;;;;10253592;28;20257;-91
2022/11/14 17:27:35;;;;;;;73.13;33.87;;;5.40;99.90;;;;;;10248928;29;20249;-92
2022/11/14 17:32:56;;;;;;;66.67;32.90;;;5.60;99.90;;;;;;10248895;28;20226;-91
2022/11/14 17:38:17;;;;;;;68.23;31.30;;;5.40;99.90;;;;;;10268069;28;20686;-91
2022/11/14 17:43:38;;;;;;;70.80;35.80;;;5.40;99.90;;;;;;10250188;29;20258;-91
2022/11/14 17:49:01;;;;;;;83.83;43.13;;;5.10;99.90;;;;;;10249084;29;20757;-91
2022/11/14 17:54:22;;;;;;;89.73;44.57;;;5.00;99.90;;;;;;10256095;28;20241;-90
2022/11/14 17:59:43;;;;;;;101.83;51.83;;;5.00;99.90;;;;;;10256259;28;20249;-92
2022/11/14 18:05:04;;;;;;;76.17;40.13;;;5.00;99.90;;;;;;10250617;28;20261;-91
2022/11/14 18:10:25;;;;;;;73.13;33.73;;;4.70;99.90;;;;;;10262353;28;20238;-92
2022/11/14 18:15:46;;;;;;;76.90;39.37;;;5.00;99.90;;;;;;10229663;28;20233;-93
2022/11/14 18:21:16;;;;;;;78.70;37.47;;;5.00;99.90;;;;;;9915038;28;9999771;-92
2022/11/14 18:26:37;;;;;;;84.00;43.47;;;4.70;99.90;;;;;;10251542;29;20210;-92
2022/11/14 18:31:58;;;;;;;88.57;41.30;;;4.80;99.90;;;;;;10261331;28;20237;-92
2022/11/14 18:37:21;;;;;;;79.80;34.87;;;4.80;99.90;;;;;;10261700;28;20205;-92
2022/11/14 18:42:42;;;;;;;74.90;37.30;;;4.60;99.90;;;;;;9905392;28;10000488;-93
2022/11/14 18:48:03;;;;;;;81.33;38.93;;;4.50;99.90;;;;;;10251308;29;20486;-92
2022/11/14 18:53:23;;;;;;;81.60;36.40;;;4.40;99.90;;;;;;10249215;29;20233;-92
2022/11/14 18:58:44;;;;;;;82.43;37.73;;;4.40;99.90;;;;;;10258304;28;20707;-92
2022/11/14 19:04:08;;;;;;;83.53;39.47;;;4.20;99.90;;;;;;10238013;29;20262;-92
2022/11/14 19:09:29;;;;;;;84.70;38.07;;;4.30;99.90;;;;;;10211724;29;20207;-92
2022/11/14 19:14:50;;;;;;;84.50;37.83;;;4.10;99.90;;;;;;10230908;29;20242;-92
2022/11/14 19:20:11;;;;;;;83.90;38.13;;;4.10;99.90;;;;;;10212551;29;20203;-92
2022/11/14 19:25:34;;;;;;;81.27;39.43;;;3.90;99.90;;;;;;10254550;28;20572;-92
2022/11/14 19:31:03;;;;;;;77.03;37.03;;;4.00;99.90;;;;;;10261294;28;20257;-91
2022/11/14 19:36:24;;;;;;;83.60;38.57;;;4.00;99.90;;;;;;10234857;28;20680;-92
2022/11/14 19:42:05;;;;;;;83.10;35.97;;;4.00;99.90;;;;;;10243846;28;20269;-92
2022/11/14 19:47:26;;;;;;;81.43;36.93;;;4.00;99.90;;;;;;10240989;28;20237;-92
2022/11/14 19:52:47;;;;;;;76.00;35.27;;;4.00;99.90;;;;;;10237467;29;20202;-92
2022/11/14 19:58:08;;;;;;;81.63;35.80;;;3.90;99.90;;;;;;10257757;28;20238;-93
2022/11/14 20:03:30;;;;;;;87.93;37.90;;;4.00;99.90;;;;;;10258919;28;20265;-92
2022/11/14 20:08:53;;;;;;;85.93;37.00;;;4.00;99.90;;;;;;10258712;28;20205;-92
2022/11/14 20:14:17;;;;;;;78.53;36.10;;;3.80;99.90;;;;;;10239809;29;20266;-91
2022/11/14 20:19:38;;;;;;;76.50;36.43;;;3.70;99.90;;;;;;10257434;28;20233;-92
2022/11/14 20:24:59;;;;;;;83.50;37.97;;;3.70;99.90;;;;;;10248580;29;20754;-92
2022/11/14 20:30:20;;;;;;;86.30;37.10;;;3.60;99.90;;;;;;10251539;28;20258;-93
2022/11/14 20:35:41;;;;;;;87.80;37.17;;;;;;;;;;10251031;28;20241;-92
2022/11/14 20:41:03;;;;;;;82.70;37.10;;;3.50;99.90;;;;;;10247850;28;20250;-92
2022/11/14 20:46:24;;;;;;;77.00;36.90;;;3.50;99.90;;;;;;10246552;28;20234;-92
2022/11/14 20:51:47;;;;;;;86.47;38.87;;;3.40;99.90;;;;;;10244294;29;20229;-92
2022/11/14 20:57:08;;;;;;;83.13;39.20;;;3.20;99.90;;;;;;9910533;28;9999719;-92
2022/11/14 21:02:31;;;;;;;82.53;39.73;;;3.30;99.90;;;;;;10250046;28;20719;-92
2022/11/14 21:07:52;;;;;;;96.63;40.97;;;3.40;99.90;;;;;;10246907;29;20202;-92
2022/11/14 21:18:56;;;;;;;99.23;45.13;;;3.40;99.90;;;;;;10247520;29;20567;-92
2022/11/14 21:24:17;;;;;;;100.03;44.83;;;3.40;99.90;;;;;;10255307;28;20632;-92
2022/11/14 21:29:38;;;;;;;84.87;41.43;;;3.20;99.90;;;;;;10245748;29;20257;-92
2022/11/14 21:34:59;;;;;;;89.73;40.37;;;3.40;99.90;;;;;;10246866;29;20644;-92
2022/11/14 21:40:26;;;;;;;96.57;42.30;;;3.30;99.90;;;;;;10255577;28;20226;-92
2022/11/14 21:45:55;;;;;;;92.03;40.70;;;3.10;99.90;;;;;;10246003;29;20269;-92
2022/11/14 21:51:19;;;;;;;97.03;39.83;;;3.00;99.90;;;;;;10248532;28;20272;-92
2022/11/14 21:56:40;;;;;;;88.27;36.70;;;3.00;99.90;;;;;;10229402;29;20217;-92
2022/11/14 22:07:41;;;;;;;96.77;40.27;;;2.80;99.90;;;;;;10252641;29;20214;-91
2022/11/14 22:13:02;;;;;;;86.67;37.50;;;2.70;99.90;;;;;;10253915;29;20210;-92
2022/11/14 22:18:23;;;;;;;85.23;39.63;;;2.80;99.90;;;;;;10250462;28;20671;-92
2022/11/14 22:23:44;;;;;;;92.87;41.00;;;3.00;99.90;;;;;;10252542;29;20265;-92
2022/11/14 22:29:06;;;;;;;98.03;41.33;;;3.20;99.90;;;;;;10251482;29;20350;-91
2022/11/14 22:34:30;;;;;;;122.20;43.13;;;3.30;99.90;;;;;;10254237;28;20253;-91
2022/11/14 22:39:51;;;;;;;100.50;43.97;;;3.50;99.90;;;;;;10254445;29;20202;-92
2022/11/14 22:45:12;;;;;;;151.47;47.57;;;3.70;99.90;;;;;;10252786;29;20222;-92
2022/11/14 22:50:33;;;;;;;127.20;43.53;;;;;;;;;;10262179;28;20205;-92
2022/11/14 22:55:56;;;;;;;123.23;44.03;;;4.00;99.90;;;;;;10260104;28;20249;-92
2022/11/14 23:01:23;;;;;;;113.77;45.13;;;4.00;99.90;;;;;;10244402;28;20219;-91
2022/11/14 23:06:44;;;;;;;96.67;39.80;;;4.10;99.90;;;;;;10224727;29;20684;-91
2022/11/14 23:12:05;;;;;;;106.77;42.93;;;4.40;99.90;;;;;;10252234;28;20245;-92
2022/11/14 23:17:27;;;;;;;99.87;42.63;;;4.20;99.90;;;;;;10245503;28;20944;-92
2022/11/14 23:22:47;;;;;;;101.13;41.17;;;4.40;99.90;;;;;;10237075;29;20265;-93
2022/11/14 23:28:08;;;;;;;111.07;42.47;;;4.20;99.90;;;;;;10251041;28;20210;-92
2022/11/14 23:33:30;;;;;;;135.97;46.03;;;4.30;99.90;;;;;;10249043;29;20213;-92
2022/11/14 23:38:52;;;;;;;105.83;43.87;;;4.30;99.90;;;;;;10219499;29;20210;-92
2022/11/14 23:44:13;;;;;;;122.67;45.87;;;4.30;99.90;;;;;;10248496;29;20261;-92
2022/11/14 23:49:35;;;;;;;106.07;42.83;;;4.30;99.90;;;;;;10253071;28;20197;-92
2022/11/14 23:54:57;;;;;;;123.03;46.93;;;4.40;99.90;;;;;;10255740;28;20225;-93
